createdAt,value
2022-09-30T00:00:27.362Z,9.37
2022-09-30T00:05:30.072Z,9.25
2022-09-30T00:10:32.738Z,9.14
2022-09-30T00:15:35.445Z,9.14
2022-09-30T00:20:38.070Z,9.14
2022-09-30T00:25:40.688Z,8.89
2022-09-30T00:30:43.872Z,9.03
2022-09-30T00:35:46.595Z,8.85
2022-09-30T00:40:49.796Z,9.03
2022-09-30T00:45:59.790Z,9.00
2022-09-30T00:51:04.664Z,9.07
2022-09-30T00:56:13.401Z,9.00
2022-09-30T01:01:16.616Z,9.00
2022-09-30T01:06:21.970Z,9.03
2022-09-30T01:11:25.205Z,8.90
2022-09-30T01:16:58.921Z,8.86
2022-09-30T01:22:20.662Z,8.89
2022-09-30T01:27:43.351Z,8.87
2022-09-30T01:33:12.464Z,8.80
2022-09-30T01:38:29.635Z,8.92
2022-09-30T01:43:45.078Z,8.75
2022-09-30T01:49:11.860Z,8.81
2022-09-30T01:54:37.916Z,8.78
2022-09-30T02:00:11.005Z,8.74
2022-09-30T02:05:20.841Z,8.70
2022-09-30T02:10:34.676Z,8.76
2022-09-30T02:15:44.381Z,8.75
2022-09-30T02:20:52.243Z,8.71
2022-09-30T02:26:07.898Z,8.69
2022-09-30T02:31:15.369Z,8.70
2022-09-30T02:36:29.880Z,8.52
2022-09-30T02:41:41.758Z,8.53
2022-09-30T02:46:57.393Z,8.49
2022-09-30T02:52:48.135Z,8.49
2022-09-30T02:58:05.495Z,8.54
2022-09-30T03:03:15.262Z,8.71
2022-09-30T03:08:17.934Z,8.79
2022-09-30T03:13:23.519Z,8.83
2022-09-30T03:18:37.741Z,8.82
2022-09-30T03:24:11.134Z,8.89
2022-09-30T03:29:24.624Z,8.95
2022-09-30T03:34:50.055Z,8.96
2022-09-30T03:40:04.429Z,8.87
2022-09-30T03:45:26.519Z,8.95
2022-09-30T03:50:30.537Z,8.92
2022-09-30T03:55:33.516Z,8.92
2022-09-30T04:00:37.337Z,9.00
2022-09-30T04:05:39.951Z,9.18
2022-09-30T04:10:44.064Z,9.32
2022-09-30T04:15:54.277Z,9.42
2022-09-30T04:20:58.342Z,9.50
2022-09-30T04:26:02.251Z,9.48
2022-09-30T04:31:06.392Z,9.77
2022-09-30T04:36:09.896Z,9.81
2022-09-30T04:41:16.298Z,9.78
2022-09-30T04:46:21.284Z,9.93
2022-09-30T04:51:23.871Z,10.13
2022-09-30T04:56:27.155Z,10.09
2022-09-30T05:01:29.728Z,10.29
2022-09-30T05:06:32.274Z,10.20
2022-09-30T05:11:35.378Z,10.29
2022-09-30T05:16:38.135Z,10.52
2022-09-30T05:21:41.005Z,10.65
2022-09-30T05:26:43.664Z,10.71
2022-09-30T05:31:47.777Z,10.82
2022-09-30T05:36:50.420Z,10.87
2022-09-30T05:41:53.135Z,11.05
2022-09-30T05:46:56.096Z,11.23
2022-09-30T05:51:58.729Z,11.41
2022-09-30T05:57:01.270Z,11.53
2022-09-30T06:02:05.067Z,11.69
2022-09-30T06:07:10.476Z,11.83
2022-09-30T06:12:13.424Z,11.89
2022-09-30T06:17:18.723Z,12.18
2022-09-30T06:22:21.305Z,12.23
2022-09-30T06:27:25.196Z,12.40
2022-09-30T06:32:27.836Z,12.45
2022-09-30T06:37:30.431Z,12.70
2022-09-30T06:42:34.866Z,12.87
2022-09-30T06:47:38.928Z,12.91
2022-09-30T06:52:42.302Z,12.99
2022-09-30T06:57:48.092Z,13.08
2022-09-30T07:02:50.676Z,13.31
2022-09-30T07:07:54.317Z,13.63
2022-09-30T07:12:56.943Z,13.99
2022-09-30T07:18:01.641Z,14.37
2022-09-30T07:23:04.263Z,14.68
2022-09-30T07:28:07.024Z,14.87
2022-09-30T07:33:16.618Z,14.87
2022-09-30T07:38:21.646Z,14.86
2022-09-30T07:43:26.350Z,14.99
2022-09-30T07:48:43.609Z,15.30
2022-09-30T07:53:49.300Z,15.35
2022-09-30T07:58:56.761Z,15.31
2022-09-30T08:04:01.872Z,15.27
2022-09-30T08:09:05.357Z,15.49
2022-09-30T08:14:07.989Z,15.49
2022-09-30T08:19:16.816Z,15.70
2022-09-30T08:24:20.191Z,16.04
2022-09-30T08:29:50.416Z,16.05
2022-09-30T08:34:45.416Z,16.16
2022-09-30T08:39:48.685Z,16.43
2022-09-30T08:44:52.576Z,16.31
2022-09-30T08:50:20.027Z,16.52
2022-09-30T08:55:31.397Z,16.70
2022-09-30T09:00:35.052Z,16.64
2022-09-30T09:05:59.017Z,16.70
2022-09-30T09:11:14.305Z,16.77
2022-09-30T09:16:35.483Z,16.83
2022-09-30T09:21:53.893Z,16.73
2022-09-30T09:27:01.769Z,16.71
2022-09-30T09:32:14.659Z,16.66
2022-09-30T09:38:09.436Z,16.73
2022-09-30T09:43:31.461Z,16.95
2022-09-30T09:48:35.545Z,17.31
2022-09-30T09:54:01.441Z,17.29
2022-09-30T09:59:15.289Z,17.22
2022-09-30T10:04:27.665Z,17.00
2022-09-30T10:09:38.765Z,17.05
2022-09-30T10:14:47.646Z,17.49
2022-09-30T10:19:55.874Z,17.89
2022-09-30T10:25:19.259Z,18.09
2022-09-30T10:30:45.988Z,18.06
2022-09-30T10:36:00.892Z,17.80
2022-09-30T10:41:05.378Z,17.72
2022-09-30T10:46:26.892Z,17.87
2022-09-30T10:51:36.969Z,17.98
2022-09-30T10:56:45.641Z,17.95
2022-09-30T11:01:57.473Z,18.17
2022-09-30T11:07:31.367Z,18.40
2022-09-30T11:12:50.031Z,18.43
2022-09-30T11:17:58.805Z,18.57
2022-09-30T11:23:16.525Z,18.50
2022-09-30T11:28:48.120Z,18.45
2022-09-30T11:33:50.466Z,18.80
2022-09-30T11:39:14.821Z,18.79
2022-09-30T11:44:41.847Z,18.29
2022-09-30T11:50:08.781Z,18.02
2022-09-30T11:55:21.321Z,17.99
2022-09-30T12:00:24.110Z,18.26
2022-09-30T12:05:33.522Z,18.09
2022-09-30T12:11:14.886Z,17.84
2022-09-30T12:16:25.384Z,17.76
2022-09-30T12:22:05.397Z,18.19
2022-09-30T12:27:26.718Z,18.24
2022-09-30T12:33:14.346Z,18.17
2022-09-30T12:38:51.630Z,18.14
2022-09-30T12:44:16.877Z,18.07
2022-09-30T12:49:25.762Z,18.03
2022-09-30T12:54:39.727Z,18.02
2022-09-30T12:59:53.680Z,17.91
2022-09-30T13:05:28.336Z,17.51
2022-09-30T13:10:39.647Z,17.28
2022-09-30T13:15:46.891Z,17.16
2022-09-30T13:20:56.786Z,16.95
2022-09-30T13:25:59.517Z,16.87
2022-09-30T13:31:19.597Z,16.81
2022-09-30T13:36:28.169Z,16.37
2022-09-30T13:41:35.033Z,16.55
2022-09-30T13:46:37.613Z,16.41
2022-09-30T13:51:41.953Z,16.37
2022-09-30T13:56:44.866Z,16.39
2022-09-30T14:02:07.530Z,16.23
2022-09-30T14:07:41.730Z,16.10
2022-09-30T14:13:03.302Z,16.20
2022-09-30T14:18:29.208Z,16.04
2022-09-30T14:23:31.831Z,15.92
2022-09-30T14:28:45.248Z,15.87
2022-09-30T14:33:50.162Z,15.84
2022-09-30T14:38:58.397Z,15.82
2022-09-30T14:44:08.313Z,15.79
2022-09-30T14:49:16.610Z,15.76
2022-09-30T14:54:26.625Z,15.68
2022-09-30T14:59:38.265Z,15.64
2022-09-30T15:04:51.275Z,15.54
2022-09-30T15:09:53.953Z,15.41
2022-09-30T15:14:58.863Z,15.44
2022-09-30T15:20:01.760Z,15.30
2022-09-30T15:25:06.753Z,15.27
2022-09-30T15:30:15.177Z,15.22
2022-09-30T15:35:24.172Z,15.06
2022-09-30T15:40:45.513Z,14.88
2022-09-30T15:45:50.526Z,14.68
2022-09-30T15:51:00.375Z,14.67
2022-09-30T15:56:26.838Z,14.62
2022-09-30T16:01:38.326Z,14.69
2022-09-30T16:06:40.926Z,14.69
2022-09-30T16:11:45.552Z,14.58
2022-09-30T16:16:57.392Z,14.52
2022-09-30T16:22:00.273Z,14.54
2022-09-30T16:27:22.350Z,14.51
2022-09-30T16:32:25.479Z,14.36
2022-09-30T16:37:28.226Z,14.43
2022-09-30T16:42:33.071Z,14.41
2022-09-30T16:47:35.646Z,14.26
2022-09-30T16:52:38.368Z,14.38
2022-09-30T16:57:41.327Z,14.20
2022-09-30T17:02:48.607Z,14.35
2022-09-30T17:07:59.782Z,14.34
2022-09-30T17:13:03.659Z,14.20
2022-09-30T17:18:08.485Z,14.20
2022-09-30T17:23:11.976Z,14.25
2022-09-30T17:28:15.481Z,14.27
2022-09-30T17:33:19.948Z,14.25
2022-09-30T17:38:22.642Z,14.29
2022-09-30T17:43:25.419Z,14.20
2022-09-30T17:48:28.248Z,14.27
2022-09-30T17:53:31.021Z,14.33
2022-09-30T17:58:33.693Z,14.33
2022-09-30T18:03:36.949Z,14.16
2022-09-30T18:08:39.659Z,14.15
2022-09-30T18:13:42.398Z,14.26
2022-09-30T18:18:44.992Z,14.27
2022-09-30T18:23:47.605Z,14.21
2022-09-30T18:28:52.812Z,14.20
2022-09-30T18:33:56.274Z,14.28
2022-09-30T18:39:02.196Z,14.20
2022-09-30T18:44:04.772Z,14.23
2022-09-30T18:49:07.475Z,14.31
2022-09-30T18:54:13.386Z,14.32
2022-09-30T18:59:18.413Z,14.31
2022-09-30T19:04:23.555Z,14.38
2022-09-30T19:09:26.783Z,14.13
2022-09-30T19:14:30.816Z,14.42
2022-09-30T19:19:39.005Z,14.32
2022-09-30T19:24:42.917Z,14.35
2022-09-30T19:29:46.337Z,14.36
2022-09-30T19:34:59.732Z,14.35
2022-09-30T19:40:20.458Z,14.38
2022-09-30T19:45:26.252Z,14.30
2022-09-30T19:50:30.096Z,14.30
2022-09-30T19:55:43.471Z,14.26
2022-09-30T20:00:54.649Z,14.28
2022-09-30T20:05:58.051Z,14.25
2022-09-30T20:11:06.152Z,14.19
2022-09-30T20:16:16.209Z,14.15
2022-09-30T20:21:19.122Z,14.13
2022-09-30T20:26:22.371Z,14.06
2022-09-30T20:31:25.845Z,13.92
2022-09-30T20:36:30.566Z,14.10
2022-09-30T20:41:38.136Z,14.00
2022-09-30T20:46:41.846Z,13.95
2022-09-30T20:51:44.775Z,13.94
2022-09-30T20:57:06.936Z,14.00
2022-09-30T21:02:14.313Z,13.93
2022-09-30T21:07:16.964Z,13.93
2022-09-30T21:12:19.899Z,13.99
2022-09-30T21:17:23.075Z,13.82
2022-09-30T21:22:25.771Z,13.93
2022-09-30T21:27:28.423Z,13.93
2022-09-30T21:32:31.064Z,13.89
2022-09-30T21:37:33.701Z,13.95
2022-09-30T21:42:37.106Z,13.90
2022-09-30T21:47:39.688Z,13.88
2022-09-30T21:52:43.022Z,13.98
2022-09-30T21:57:47.453Z,13.63
2022-09-30T22:02:50.635Z,13.49
2022-09-30T22:07:53.388Z,13.55
2022-09-30T22:12:56.011Z,13.19
2022-09-30T22:17:58.694Z,13.04
2022-09-30T22:23:01.288Z,12.87
2022-09-30T22:28:04.747Z,12.87
2022-09-30T22:33:25.803Z,12.84
2022-09-30T22:38:28.763Z,12.74
2022-09-30T22:43:32.933Z,12.84
2022-09-30T22:48:37.059Z,12.65
2022-09-30T22:53:39.609Z,12.65
2022-09-30T22:58:42.206Z,12.72
2022-09-30T23:03:44.940Z,12.90
2022-09-30T23:08:49.359Z,12.99
2022-09-30T23:13:58.853Z,12.78
2022-09-30T23:19:01.988Z,12.91
2022-09-30T23:24:04.830Z,12.58
2022-09-30T23:29:10.822Z,12.72
2022-09-30T23:34:13.714Z,12.74
2022-09-30T23:39:21.604Z,12.77
2022-09-30T23:44:24.559Z,12.67
2022-09-30T23:49:27.188Z,12.54
2022-09-30T23:54:29.804Z,12.36
2022-09-30T23:59:32.984Z,12.33
